モントリオール/トルドー の空港の天気 - METARとTAF

モントリオール・ピエール・エリオット・トルドー国際空港 ( CYUL / YUL ) - カナダ ケベック州モントリオール
飛行場実況気象(Metar)
観測時間07/16 02:00 EDT (07/16 06:00 UTC)
風向・風速南南東 2m/s
視程10km以上
天気現象
少しの雲 雲底高度 7320m
気温23℃
湿度69%
気圧1014.3hPa
METARCYUL 160600Z 16004KT 15SM FEW240 23/17 A2995 RMK CI1 SLP143 DENSITY ALT 1100FT
過去の天気等 Google飛行場航空写真 Wunderground天気予報

過去48時間のMETAR

飛行場予報(TAF)
発表時間: 7/16 01:38 EDT (7/16 05:38 UTC)
予報対象時間: 16日2時 EDT ~ 17日2時 EDT
風向・風速東南東 4m/s
視程10km以上
全天の4割程度の雲 雲底高度 7920m
16日2時 EDT ~ 16日4時 EDT に徐々に
風向・風速不定 2m/s
16日14時 EDT から
風向・風速南 4m/s
視程10km以上
全天の4割程度の雲 雲底高度 7320m
16日16時 EDT ~ 16日18時 EDT に徐々に
風向・風速南南東 6m/s
16日22時 EDT から
風向・風速南西 6m/s
視程10km以上
全天の4割程度の雲 雲底高度 2740m
TAF CYUL 160538Z 1606/1706 12008KT P6SM SCT260
BECMG 1606/1608 VRB03KT
FM161800 19008KT P6SM SCT240
BECMG 1620/1622 15012KT
FM170200 22012KT P6SM SCT090 RMK NXT FCST BY 160900Z